createdAt,value
2017-09-17T00:01:28.855Z,15.13
2017-09-17T00:06:57.030Z,19.17
2017-09-17T00:12:25.169Z,15.53
2017-09-17T00:17:53.401Z,13.93
2017-09-17T00:23:21.964Z,14.60
2017-09-17T00:28:50.091Z,16.50
2017-09-17T00:34:18.239Z,18.50
2017-09-17T00:39:47.144Z,17.60
2017-09-17T00:45:15.293Z,20.10
2017-09-17T00:50:43.442Z,20.97
2017-09-17T00:56:11.584Z,17.93
2017-09-17T01:01:40.490Z,19.27
2017-09-17T01:07:09.390Z,18.27
2017-09-17T01:12:37.547Z,18.43
2017-09-17T01:18:05.671Z,18.43
2017-09-17T01:23:33.913Z,19.00
2017-09-17T01:29:02.813Z,16.53
2017-09-17T01:34:31.020Z,15.67
2017-09-17T01:40:00.029Z,16.97
2017-09-17T01:45:28.171Z,19.93
2017-09-17T01:50:56.351Z,18.10
2017-09-17T01:56:24.511Z,12.10
2017-09-17T02:01:53.412Z,17.97
2017-09-17T02:07:21.627Z,10.93
2017-09-17T02:12:50.544Z,11.60
2017-09-17T02:18:18.676Z,14.53
2017-09-17T02:23:46.823Z,9.20
2017-09-17T02:29:15.731Z,11.27
2017-09-17T02:34:43.867Z,11.40
2017-09-17T02:40:12.037Z,10.73
2017-09-17T02:45:40.183Z,8.60
2017-09-17T02:51:08.326Z,10.13
2017-09-17T02:56:37.356Z,11.17
2017-09-17T03:02:05.558Z,7.80
2017-09-17T03:07:34.500Z,10.10
2017-09-17T03:13:03.563Z,5.80
2017-09-17T03:18:31.693Z,7.07
2017-09-17T03:24:00.763Z,7.73
2017-09-17T03:29:28.924Z,11.57
2017-09-17T03:34:57.052Z,4.20
2017-09-17T03:40:25.184Z,5.37
2017-09-17T03:45:53.310Z,4.87
2017-09-17T03:51:21.508Z,4.33
2017-09-17T03:56:49.633Z,6.90
2017-09-17T04:02:17.775Z,4.40
2017-09-17T04:07:45.924Z,8.07
2017-09-17T04:13:14.122Z,4.53
2017-09-17T04:18:42.263Z,4.20
2017-09-17T04:24:10.386Z,5.07
2017-09-17T04:29:38.523Z,4.17
2017-09-17T04:35:06.660Z,6.33
2017-09-17T04:40:34.796Z,2.60
2017-09-17T04:46:03.054Z,3.90
2017-09-17T04:51:31.216Z,2.27
2017-09-17T04:56:59.344Z,2.60
2017-09-17T05:02:28.243Z,3.13
2017-09-17T05:07:56.400Z,3.40
2017-09-17T05:13:25.322Z,2.53
2017-09-17T05:18:53.462Z,3.83
2017-09-17T05:24:21.614Z,2.60
2017-09-17T05:29:49.717Z,7.33
2017-09-17T05:35:17.862Z,3.10
2017-09-17T05:40:45.977Z,3.13
2017-09-17T05:46:14.116Z,3.60
2017-09-17T05:51:42.263Z,2.83
2017-09-17T05:57:11.186Z,4.63
2017-09-17T06:02:39.376Z,3.67
2017-09-17T06:08:07.498Z,3.83
2017-09-17T06:13:35.631Z,6.60
2017-09-17T06:19:03.758Z,4.07
2017-09-17T06:24:31.865Z,4.27
2017-09-17T06:30:00.559Z,4.20
2017-09-17T06:35:28.737Z,5.00
2017-09-17T06:40:56.870Z,6.50
2017-09-17T06:46:25.019Z,5.00
2017-09-17T06:51:53.174Z,8.67
2017-09-17T06:57:21.306Z,7.10
2017-09-17T07:02:49.462Z,10.67
2017-09-17T07:08:17.586Z,9.70
2017-09-17T07:13:45.749Z,11.47
2017-09-17T07:19:13.878Z,13.47
2017-09-17T07:24:42.038Z,17.93
2017-09-17T07:30:10.158Z,17.57
2017-09-17T07:35:38.316Z,20.40
2017-09-17T07:41:06.457Z,15.07
2017-09-17T07:46:34.630Z,18.77
2017-09-17T07:52:02.868Z,18.20
2017-09-17T07:57:31.422Z,19.67
2017-09-17T08:03:01.327Z,18.03
2017-09-17T08:08:29.929Z,19.20
2017-09-17T08:13:58.223Z,19.37
2017-09-17T08:19:27.459Z,19.13
2017-09-17T08:24:55.628Z,17.60
2017-09-17T08:30:24.288Z,16.90
2017-09-17T08:35:54.557Z,19.70
2017-09-17T08:41:22.727Z,18.13
2017-09-17T08:46:51.691Z,15.37
2017-09-17T08:52:19.965Z,16.33
2017-09-17T08:57:48.901Z,21.03
2017-09-17T09:03:17.150Z,13.63
2017-09-17T09:08:46.096Z,14.20
2017-09-17T09:14:14.250Z,13.33
2017-09-17T09:19:43.270Z,18.43
2017-09-17T09:25:11.462Z,12.60
2017-09-17T09:30:39.750Z,10.80
2017-09-17T09:36:08.044Z,13.30
2017-09-17T09:41:36.209Z,14.33
2017-09-17T09:47:04.834Z,13.47
2017-09-17T09:52:33.126Z,8.87
2017-09-17T09:58:01.362Z,10.70
2017-09-17T10:03:29.519Z,10.43
2017-09-17T10:08:57.680Z,8.57
2017-09-17T10:14:25.836Z,7.70
2017-09-17T10:19:54.750Z,6.30
2017-09-17T10:25:22.931Z,6.13
2017-09-17T10:30:51.205Z,4.80
2017-09-17T10:36:19.812Z,4.57
2017-09-17T10:41:54.149Z,5.50
2017-09-17T10:47:27.848Z,3.97
2017-09-17T10:52:56.115Z,5.10
2017-09-17T10:58:24.265Z,4.60
2017-09-17T11:03:53.587Z,3.80
2017-09-17T11:09:21.817Z,3.17
2017-09-17T11:14:49.963Z,1.87
2017-09-17T11:20:18.122Z,4.53
2017-09-17T11:25:46.291Z,5.23
2017-09-17T11:31:14.444Z,1.90
2017-09-17T11:36:43.643Z,3.80
2017-09-17T11:42:12.561Z,4.50
2017-09-17T11:48:06.424Z,3.80
2017-09-17T11:53:34.584Z,2.37
2017-09-17T11:59:02.740Z,2.53
2017-09-17T12:04:30.876Z,3.17
2017-09-17T12:09:59.011Z,2.87
2017-09-17T12:15:33.868Z,2.83
2017-09-17T12:21:02.876Z,2.33
2017-09-17T12:26:32.308Z,2.50
2017-09-17T12:32:01.234Z,1.80
2017-09-17T12:37:29.399Z,1.57
2017-09-17T12:42:57.599Z,1.97
2017-09-17T12:48:31.587Z,1.87
2017-09-17T12:54:00.293Z,11.77
2017-09-17T12:59:29.770Z,1.70
2017-09-17T13:05:09.451Z,2.20
2017-09-17T13:10:40.559Z,4.20
2017-09-17T13:16:23.924Z,2.57
2017-09-17T13:21:58.177Z,1.30
2017-09-17T13:27:30.659Z,1.40
2017-09-17T13:33:13.943Z,2.70
2017-09-17T13:38:51.929Z,2.60
2017-09-17T13:44:21.434Z,3.17
2017-09-17T13:49:50.171Z,3.20
2017-09-17T13:55:28.229Z,3.00
2017-09-17T14:01:03.020Z,1.83
2017-09-17T14:06:40.027Z,1.50
2017-09-17T14:12:08.297Z,1.70
2017-09-17T14:17:37.328Z,2.83
2017-09-17T14:23:06.712Z,1.60
2017-09-17T14:28:35.663Z,1.20
2017-09-17T14:34:04.629Z,1.03
2017-09-17T14:39:32.782Z,1.93
2017-09-17T14:45:05.652Z,2.60
2017-09-17T14:50:53.368Z,1.50
2017-09-17T14:56:35.754Z,1.40
2017-09-17T15:02:04.024Z,1.20
2017-09-17T15:07:32.346Z,1.20
2017-09-17T15:13:00.728Z,1.83
2017-09-17T15:18:28.945Z,4.03
2017-09-17T15:24:01.348Z,2.13
2017-09-17T15:29:29.603Z,1.57
2017-09-17T15:34:57.880Z,1.50
2017-09-17T15:40:26.052Z,1.50
2017-09-17T15:45:54.956Z,2.37
2017-09-17T15:51:27.182Z,2.60
2017-09-17T15:56:55.451Z,2.03
2017-09-17T16:02:24.041Z,1.97
2017-09-17T16:07:53.894Z,2.23
2017-09-17T16:13:22.160Z,3.30
2017-09-17T16:18:50.362Z,3.63
2017-09-17T16:24:18.509Z,1.93
2017-09-17T16:29:47.466Z,2.97
2017-09-17T16:35:25.135Z,2.60
2017-09-17T16:40:53.794Z,2.30
2017-09-17T16:46:21.936Z,2.23
2017-09-17T16:51:50.097Z,6.63
2017-09-17T16:57:19.201Z,2.87
2017-09-17T17:02:52.011Z,3.07
2017-09-17T17:08:21.000Z,4.90
2017-09-17T17:13:49.164Z,2.20
2017-09-17T17:19:17.355Z,2.60
2017-09-17T17:24:45.492Z,3.60
2017-09-17T17:30:13.649Z,1.83
2017-09-17T17:35:41.797Z,2.00
2017-09-17T17:41:10.115Z,4.83
2017-09-17T17:46:38.473Z,3.30
2017-09-17T17:52:06.602Z,3.20
2017-09-17T17:57:34.948Z,2.50
2017-09-17T18:03:03.282Z,2.90
2017-09-17T18:08:31.461Z,3.20
2017-09-17T18:13:59.599Z,4.50
2017-09-17T18:19:41.119Z,4.50
2017-09-17T18:25:16.373Z,3.90
2017-09-17T18:30:47.051Z,4.63
2017-09-17T18:36:15.287Z,3.60
2017-09-17T18:41:43.431Z,5.07
2017-09-17T18:47:11.889Z,4.27
2017-09-17T18:52:40.229Z,6.40
2017-09-17T18:58:09.150Z,5.67
2017-09-17T19:03:37.345Z,5.73
2017-09-17T19:09:05.483Z,5.40
2017-09-17T19:14:34.556Z,5.20
2017-09-17T19:20:02.689Z,5.70
2017-09-17T19:25:30.826Z,5.60
2017-09-17T19:30:59.022Z,5.83
2017-09-17T19:36:27.912Z,6.50
2017-09-17T19:41:56.080Z,10.83
2017-09-17T19:47:25.126Z,9.43
2017-09-17T19:52:54.232Z,13.60
2017-09-17T19:58:25.449Z,13.73
2017-09-17T20:03:53.571Z,7.80
2017-09-17T20:09:21.797Z,6.33
2017-09-17T20:14:50.745Z,8.50
2017-09-17T20:20:19.041Z,5.80
2017-09-17T20:25:47.953Z,5.70
2017-09-17T20:31:16.176Z,6.07
2017-09-17T20:36:45.073Z,9.17
2017-09-17T20:42:16.832Z,6.73
2017-09-17T20:47:46.171Z,5.13
2017-09-17T20:53:15.110Z,5.63
2017-09-17T20:58:43.281Z,6.20
2017-09-17T21:04:11.430Z,4.87
2017-09-17T21:09:39.560Z,5.33
2017-09-17T21:15:09.469Z,4.57
2017-09-17T21:20:38.398Z,4.97
2017-09-17T21:26:21.592Z,4.90
2017-09-17T21:31:49.731Z,6.37
2017-09-17T21:37:38.082Z,5.37
2017-09-17T21:43:06.223Z,7.00
2017-09-17T21:48:34.360Z,2.60
2017-09-17T21:54:02.530Z,4.50
2017-09-17T21:59:31.582Z,2.80
2017-09-17T22:04:59.716Z,5.73
2017-09-17T22:10:28.654Z,4.00
2017-09-17T22:15:56.769Z,3.87
2017-09-17T22:21:24.920Z,8.90
2017-09-17T22:26:53.049Z,4.77
2017-09-17T22:32:21.937Z,4.23
2017-09-17T22:37:50.060Z,4.27
2017-09-17T22:43:18.190Z,5.30
2017-09-17T22:48:47.668Z,7.50
2017-09-17T22:54:16.640Z,2.60
2017-09-17T22:59:44.761Z,3.07
2017-09-17T23:05:14.068Z,3.10
2017-09-17T23:10:42.961Z,2.00
2017-09-17T23:16:11.090Z,1.73
2017-09-17T23:21:40.934Z,2.13
2017-09-17T23:27:09.062Z,3.20
2017-09-17T23:32:37.197Z,3.67
2017-09-17T23:38:06.161Z,2.13
2017-09-17T23:43:34.313Z,2.70
2017-09-17T23:49:02.462Z,2.53
2017-09-17T23:54:30.679Z,1.83
2017-09-17T23:59:58.807Z,4.43
